createdAt,value
2018-08-30T00:05:48.126Z,23.5
2018-08-30T00:15:49.539Z,23.5
2018-08-30T00:25:51.518Z,23.4
2018-08-30T00:35:53.564Z,23.4
2018-08-30T00:45:55.157Z,23.4
2018-08-30T00:55:56.736Z,23.3
2018-08-30T01:05:58.831Z,23.3
2018-08-30T01:16:00.643Z,23.3
2018-08-30T01:26:02.464Z,23.3
2018-08-30T01:36:04.680Z,23.3
2018-08-30T01:46:06.467Z,23.2
2018-08-30T01:56:08.127Z,23.2
2018-08-30T02:06:10.122Z,23.2
2018-08-30T02:16:11.828Z,23.2
2018-08-30T02:26:13.905Z,23.2
2018-08-30T02:36:15.648Z,23.2
2018-08-30T02:46:17.216Z,23.2
2018-08-30T02:56:19.044Z,23.2
2018-08-30T03:06:21.090Z,23.1
2018-08-30T03:16:22.998Z,23.1
2018-08-30T03:26:24.717Z,23.1
2018-08-30T03:36:26.641Z,23.1
2018-08-30T03:46:28.533Z,23.1
2018-08-30T03:56:30.495Z,23.1
2018-08-30T04:06:32.598Z,23.1
2018-08-30T04:16:34.569Z,23
2018-08-30T04:26:36.520Z,23
2018-08-30T04:36:38.713Z,23
2018-08-30T04:46:40.983Z,23
2018-08-30T04:56:42.817Z,23
2018-08-30T05:06:44.477Z,23
2018-08-30T05:16:46.519Z,23
2018-08-30T05:26:48.300Z,23
2018-08-30T05:36:50.406Z,23
2018-08-30T05:46:52.408Z,23
2018-08-30T05:56:54.145Z,22.9
2018-08-30T06:06:55.799Z,22.8
2018-08-30T06:16:57.681Z,22.4
2018-08-30T06:26:59.580Z,22.4
2018-08-30T06:37:01.296Z,22.4
2018-08-30T06:47:03.203Z,22.3
2018-08-30T06:57:04.864Z,22.9
2018-08-30T07:07:07.123Z,23.2
2018-08-30T07:17:09.360Z,23.5
2018-08-30T07:27:11.268Z,23.7
2018-08-30T07:37:13.300Z,23.7
2018-08-30T07:47:15.091Z,23.8
2018-08-30T07:57:17.097Z,24.1
2018-08-30T08:07:19.134Z,24.3
2018-08-30T08:17:20.399Z,24.5
2018-08-30T08:27:22.480Z,24.6
2018-08-30T08:37:24.134Z,24.7
2018-08-30T08:47:26.334Z,24.7
2018-08-30T08:57:28.656Z,24.7
2018-08-30T09:07:30.426Z,24.8
2018-08-30T09:17:32.181Z,24.9
2018-08-30T09:27:34.425Z,25
2018-08-30T09:37:35.801Z,25.1
2018-08-30T09:47:37.706Z,25.1
2018-08-30T09:57:40.304Z,25.2
2018-08-30T10:07:42.371Z,25.2
2018-08-30T10:17:44.654Z,25.3
2018-08-30T10:27:46.815Z,25.4
2018-08-30T10:37:48.554Z,25.5
2018-08-30T10:47:50.645Z,25.4
2018-08-30T10:57:52.453Z,25.4
2018-08-30T11:07:54.448Z,25.5
2018-08-30T11:17:56.311Z,25.4
2018-08-30T11:27:57.988Z,25.5
2018-08-30T11:38:00.003Z,25.4
2018-08-30T11:48:02.049Z,25.4
2018-08-30T11:58:03.874Z,25.4
2018-08-30T12:08:05.730Z,25.4
2018-08-30T12:18:07.302Z,25.4
2018-08-30T12:28:09.064Z,25.3
2018-08-30T12:38:10.737Z,25.4
2018-08-30T12:48:13.501Z,25.4
2018-08-30T12:58:15.250Z,25.3
2018-08-30T13:08:17.698Z,25.3
2018-08-30T13:18:19.929Z,25.3
2018-08-30T13:28:21.865Z,25.3
2018-08-30T13:38:24.150Z,25.3
2018-08-30T13:48:26.330Z,25.3
2018-08-30T13:58:28.569Z,25.3
2018-08-30T14:08:30.257Z,25.3
2018-08-30T14:18:31.804Z,25.3
2018-08-30T14:28:33.771Z,25.1
2018-08-30T14:38:35.096Z,25.1
2018-08-30T14:48:36.611Z,25.1
2018-08-30T14:58:38.176Z,25.1
2018-08-30T15:08:39.971Z,25
2018-08-30T15:18:41.985Z,25
2018-08-30T15:28:44.086Z,25
2018-08-30T15:38:46.273Z,25
2018-08-30T15:48:48.117Z,25
2018-08-30T15:58:49.363Z,25.1
2018-08-30T16:08:51.499Z,25
2018-08-30T16:18:53.865Z,25
2018-08-30T16:28:55.664Z,25.1
2018-08-30T16:38:57.762Z,25.4
2018-08-30T16:48:59.863Z,25.6
2018-08-30T16:59:01.391Z,25.6
2018-08-30T17:09:03.082Z,25.6
2018-08-30T17:19:05.031Z,25.7
2018-08-30T17:29:07.082Z,25.8
2018-08-30T17:39:08.899Z,25.8
2018-08-30T17:49:10.695Z,25.9
2018-08-30T17:59:12.402Z,25.9
2018-08-30T18:09:14.346Z,26
2018-08-30T18:19:16.465Z,25.9
2018-08-30T18:29:18.143Z,25.9
2018-08-30T18:39:20.204Z,25.9
2018-08-30T18:49:21.898Z,25.8
2018-08-30T18:59:23.416Z,25.8
2018-08-30T19:09:25.121Z,25.5
2018-08-30T19:19:26.880Z,25.1
2018-08-30T19:29:28.782Z,25
2018-08-30T19:39:31.219Z,24.9
2018-08-30T19:49:33.461Z,24.8
2018-08-30T19:59:34.892Z,24.7
2018-08-30T20:09:37.263Z,24.6
2018-08-30T20:19:39.058Z,24.5
2018-08-30T20:29:41.147Z,24.5
2018-08-30T20:39:42.894Z,24.4
2018-08-30T20:49:44.847Z,24.3
2018-08-30T20:59:47.137Z,24.3
2018-08-30T21:09:49.348Z,24.2
2018-08-30T21:19:51.026Z,24.1
2018-08-30T21:29:52.813Z,24
2018-08-30T21:39:54.776Z,24
2018-08-30T21:49:56.543Z,23.9
2018-08-30T21:59:58.221Z,23.9
2018-08-30T22:09:59.828Z,23.8
2018-08-30T22:20:01.802Z,23.8
2018-08-30T22:30:03.735Z,23.7
2018-08-30T22:40:05.796Z,23.7
2018-08-30T22:50:07.064Z,23.7
2018-08-30T23:00:08.847Z,23.6
2018-08-30T23:10:10.538Z,23.6
2018-08-30T23:20:12.264Z,23.5
2018-08-30T23:30:14.291Z,23.5
2018-08-30T23:40:15.948Z,23.4
2018-08-30T23:50:17.674Z,23.4
